createdAt,value
2018-09-28T00:04:25.401Z,17.08
2018-09-28T00:09:17.970Z,17.08
2018-09-28T00:14:10.544Z,17.03
2018-09-28T00:19:03.145Z,16.97
2018-09-28T00:23:55.750Z,16.88
2018-09-28T00:28:48.417Z,16.83
2018-09-28T00:33:41.026Z,16.79
2018-09-28T00:38:33.655Z,16.72
2018-09-28T00:43:26.296Z,16.58
2018-09-28T00:48:18.935Z,16.51
2018-09-28T00:53:11.526Z,16.49
2018-09-28T00:58:04.152Z,16.43
2018-09-28T01:02:56.754Z,16.41
2018-09-28T01:07:49.378Z,16.37
2018-09-28T01:12:42.105Z,16.30
2018-09-28T01:17:34.701Z,16.25
2018-09-28T01:22:27.271Z,16.16
2018-09-28T01:27:20.040Z,16.10
2018-09-28T01:32:12.683Z,16.08
2018-09-28T01:37:05.307Z,16.00
2018-09-28T01:41:57.951Z,15.98
2018-09-28T01:46:50.555Z,15.95
2018-09-28T01:51:43.176Z,15.90
2018-09-28T01:56:35.791Z,15.82
2018-09-28T02:01:28.455Z,15.71
2018-09-28T02:06:21.117Z,15.66
2018-09-28T02:11:13.737Z,15.62
2018-09-28T02:16:06.418Z,15.61
2018-09-28T02:20:59.067Z,15.59
2018-09-28T02:25:51.738Z,15.52
2018-09-28T02:30:44.323Z,15.45
2018-09-28T02:35:36.923Z,15.42
2018-09-28T02:40:29.539Z,15.39
2018-09-28T02:45:22.202Z,15.34
2018-09-28T02:50:14.869Z,15.34
2018-09-28T02:55:07.544Z,15.32
2018-09-28T03:00:00.148Z,15.31
2018-09-28T03:04:52.804Z,15.29
2018-09-28T03:09:45.511Z,15.26
2018-09-28T03:14:38.123Z,15.24
2018-09-28T03:19:30.812Z,15.20
2018-09-28T03:24:23.370Z,15.18
2018-09-28T03:29:15.974Z,15.15
2018-09-28T03:34:08.632Z,15.11
2018-09-28T03:39:01.283Z,15.08
2018-09-28T03:43:53.975Z,15.07
2018-09-28T03:48:46.609Z,15.03
2018-09-28T03:53:39.207Z,15.03
2018-09-28T03:58:31.888Z,15.05
2018-09-28T04:03:24.561Z,15.01
2018-09-28T04:08:17.229Z,14.96
2018-09-28T04:13:09.836Z,14.94
2018-09-28T04:18:02.487Z,14.91
2018-09-28T04:22:55.173Z,14.87
2018-09-28T04:27:47.821Z,14.84
2018-09-28T04:32:40.429Z,14.81
2018-09-28T04:37:33.119Z,14.78
2018-09-28T04:42:25.824Z,14.71
2018-09-28T04:47:18.538Z,14.72
2018-09-28T04:52:11.187Z,14.70
2018-09-28T04:57:04.208Z,14.72
2018-09-28T05:01:56.904Z,14.71
2018-09-28T05:06:49.618Z,14.70
2018-09-28T05:11:42.630Z,14.71
2018-09-28T05:16:35.245Z,14.73
2018-09-28T05:21:27.881Z,14.76
2018-09-28T05:26:20.592Z,14.81
2018-09-28T05:31:13.343Z,14.85
2018-09-28T05:36:05.986Z,14.89
2018-09-28T05:40:58.660Z,14.90
2018-09-28T05:45:51.362Z,14.91
2018-09-28T05:50:43.987Z,14.95
2018-09-28T05:55:36.783Z,14.95
2018-09-28T06:00:36.237Z,14.96
2018-09-28T06:05:31.792Z,14.97
2018-09-28T06:10:24.386Z,15.01
2018-09-28T06:15:17.473Z,15.03
2018-09-28T06:20:10.479Z,15.06
2018-09-28T06:25:03.504Z,15.07
2018-09-28T06:29:56.562Z,15.10
2018-09-28T06:34:49.540Z,15.12
2018-09-28T06:39:42.375Z,15.13
2018-09-28T06:44:35.345Z,15.21
2018-09-28T06:50:31.579Z,15.31
2018-09-28T06:55:24.363Z,15.44
2018-09-28T07:00:17.444Z,15.51
2018-09-28T07:05:10.412Z,15.60
2018-09-28T07:10:03.162Z,15.76
2018-09-28T07:14:56.065Z,16.08
2018-09-28T07:19:48.934Z,16.34
2018-09-28T07:24:41.806Z,16.55
2018-09-28T07:29:34.649Z,16.72
2018-09-28T07:34:27.619Z,16.83
2018-09-28T07:39:20.537Z,16.98
2018-09-28T07:44:13.468Z,17.14
2018-09-28T07:49:06.685Z,17.31
2018-09-28T07:53:59.565Z,17.38
2018-09-28T07:58:52.454Z,17.30
2018-09-28T08:03:45.632Z,17.42
2018-09-28T08:08:38.603Z,17.58
2018-09-28T08:13:31.501Z,17.62
2018-09-28T08:18:24.544Z,17.74
2018-09-28T08:23:17.498Z,17.93
2018-09-28T08:28:10.376Z,18.11
2018-09-28T08:33:03.127Z,18.27
2018-09-28T08:37:55.766Z,18.38
2018-09-28T08:42:48.371Z,18.31
2018-09-28T08:47:41.144Z,18.36
2018-09-28T08:52:34.011Z,18.48
2018-09-28T08:57:26.836Z,18.52
2018-09-28T09:02:19.538Z,18.50
2018-09-28T09:07:12.139Z,18.52
2018-09-28T09:12:04.804Z,18.55
2018-09-28T09:16:57.519Z,18.60
2018-09-28T09:21:50.183Z,18.87
2018-09-28T09:26:42.848Z,19.27
2018-09-28T09:31:35.555Z,19.69
2018-09-28T09:36:28.212Z,20.01
2018-09-28T09:41:20.903Z,20.18
2018-09-28T09:46:13.527Z,20.25
2018-09-28T09:51:06.400Z,20.45
2018-09-28T09:56:01.856Z,20.65
2018-09-28T10:01:00.787Z,20.91
2018-09-28T10:05:53.458Z,21.07
2018-09-28T10:10:46.037Z,21.07
2018-09-28T10:15:38.683Z,21.20
2018-09-28T10:20:31.289Z,21.37
2018-09-28T10:25:24.163Z,21.57
2018-09-28T10:30:16.936Z,21.69
2018-09-28T10:35:09.576Z,21.86
2018-09-28T10:40:02.284Z,21.85
2018-09-28T10:44:54.903Z,21.68
2018-09-28T10:49:47.561Z,21.58
2018-09-28T10:54:40.183Z,21.75
2018-09-28T10:59:32.892Z,21.82
2018-09-28T11:04:25.766Z,21.97
2018-09-28T11:09:18.453Z,22.10
2018-09-28T11:14:11.050Z,22.26
2018-09-28T11:19:03.939Z,22.45
2018-09-28T11:23:56.506Z,22.52
2018-09-28T11:28:49.127Z,22.63
2018-09-28T11:33:41.917Z,22.64
2018-09-28T11:38:34.775Z,22.61
2018-09-28T11:43:27.468Z,22.55
2018-09-28T11:48:20.043Z,22.53
2018-09-28T11:53:12.690Z,22.47
2018-09-28T11:58:05.405Z,22.35
2018-09-28T12:02:58.278Z,22.33
2018-09-28T12:07:50.945Z,22.18
2018-09-28T12:12:44.527Z,22.09
2018-09-28T12:17:37.161Z,22.18
2018-09-28T12:22:29.812Z,22.34
2018-09-28T12:27:22.555Z,22.47
2018-09-28T12:32:15.196Z,22.51
2018-09-28T12:37:07.918Z,22.68
2018-09-28T12:42:00.536Z,22.76
2018-09-28T12:46:53.215Z,22.78
2018-09-28T12:51:45.889Z,22.84
2018-09-28T12:56:38.605Z,22.99
2018-09-28T13:01:32.335Z,23.11
2018-09-28T13:06:25.005Z,23.04
2018-09-28T13:11:17.856Z,22.96
2018-09-28T13:16:10.667Z,22.89
2018-09-28T13:21:03.461Z,22.92
2018-09-28T13:25:56.127Z,22.99
2018-09-28T13:30:48.816Z,23.11
2018-09-28T13:35:41.527Z,23.23
2018-09-28T13:40:34.174Z,23.17
2018-09-28T13:45:26.893Z,23.02
2018-09-28T13:50:19.559Z,22.82
2018-09-28T13:55:12.342Z,22.72
2018-09-28T14:00:05.778Z,22.76
2018-09-28T14:04:58.547Z,22.77
2018-09-28T14:09:51.195Z,22.79
2018-09-28T14:14:43.904Z,22.75
2018-09-28T14:19:36.565Z,22.64
2018-09-28T14:24:29.360Z,22.56
2018-09-28T14:29:22.923Z,22.53
2018-09-28T14:34:15.580Z,22.51
2018-09-28T14:39:09.153Z,22.35
2018-09-28T14:44:01.807Z,22.19
2018-09-28T14:48:54.643Z,22.03
2018-09-28T14:53:47.237Z,21.90
2018-09-28T14:58:39.930Z,21.83
2018-09-28T15:03:32.613Z,21.76
2018-09-28T15:08:25.368Z,21.66
2018-09-28T15:13:18.031Z,21.59
2018-09-28T15:18:10.917Z,21.49
2018-09-28T15:23:03.535Z,21.49
2018-09-28T15:27:56.136Z,21.46
2018-09-28T15:32:48.856Z,21.31
2018-09-28T15:37:41.520Z,21.10
2018-09-28T15:42:34.211Z,20.86
2018-09-28T15:47:28.028Z,20.66
2018-09-28T15:52:21.569Z,20.54
2018-09-28T15:57:14.360Z,20.43
2018-09-28T16:02:07.483Z,20.34
2018-09-28T16:07:00.288Z,20.23
2018-09-28T16:11:52.956Z,20.07
2018-09-28T16:16:45.737Z,19.91
2018-09-28T16:21:38.494Z,19.75
2018-09-28T16:26:31.138Z,19.60
2018-09-28T16:31:23.850Z,19.46
2018-09-28T16:36:16.571Z,19.37
2018-09-28T16:41:09.378Z,19.26
2018-09-28T16:46:02.082Z,19.13
2018-09-28T16:50:54.774Z,19.00
2018-09-28T16:55:47.429Z,18.85
2018-09-28T17:00:40.119Z,18.70
2018-09-28T17:05:32.957Z,18.55
2018-09-28T17:10:26.073Z,18.39
2018-09-28T17:15:18.908Z,18.22
2018-09-28T17:20:11.559Z,18.10
2018-09-28T17:25:04.221Z,17.96
2018-09-28T17:29:57.066Z,17.81
2018-09-28T17:34:49.775Z,17.67
2018-09-28T17:39:42.451Z,17.53
2018-09-28T17:44:35.089Z,17.41
2018-09-28T17:49:27.744Z,17.31
2018-09-28T17:54:20.407Z,17.23
2018-09-28T17:59:13.005Z,17.10
2018-09-28T18:04:05.737Z,16.97
2018-09-28T18:08:58.410Z,16.86
2018-09-28T18:13:51.048Z,16.77
2018-09-28T18:18:43.774Z,16.68
2018-09-28T18:23:36.470Z,16.56
2018-09-28T18:28:29.135Z,16.43
2018-09-28T18:33:21.897Z,16.32
2018-09-28T18:38:14.501Z,16.26
2018-09-28T18:43:07.122Z,16.11
2018-09-28T18:47:59.810Z,16.02
2018-09-28T18:52:52.458Z,15.92
2018-09-28T18:57:45.134Z,15.78
2018-09-28T19:02:37.882Z,15.69
2018-09-28T19:07:31.103Z,15.60
2018-09-28T19:12:23.704Z,15.49
2018-09-28T19:17:16.317Z,15.38
2018-09-28T19:22:09.047Z,15.27
2018-09-28T19:27:01.690Z,15.19
2018-09-28T19:39:11.352Z,15.04
2018-09-28T19:44:04.095Z,14.97
2018-09-28T19:48:56.797Z,14.86
2018-09-28T19:53:49.458Z,14.77
2018-09-28T19:58:42.198Z,14.71
2018-09-28T20:03:34.891Z,14.61
2018-09-28T20:08:27.543Z,14.43
2018-09-28T20:13:20.307Z,14.27
2018-09-28T20:18:12.909Z,14.19
2018-09-28T20:23:05.947Z,14.16
2018-09-28T20:27:58.988Z,14.08
2018-09-28T20:32:52.220Z,14.00
2018-09-28T20:37:45.085Z,13.94
2018-09-28T20:42:38.263Z,13.91
2018-09-28T20:47:31.378Z,13.82
2018-09-28T20:52:24.488Z,13.78
2018-09-28T20:57:17.458Z,13.75
2018-09-28T21:02:10.193Z,13.75
2018-09-28T21:07:02.861Z,13.67
2018-09-28T21:11:55.722Z,13.64
2018-09-28T21:16:48.694Z,13.58
2018-09-28T21:21:41.768Z,13.53
2018-09-28T21:26:35.365Z,13.51
2018-09-28T21:31:28.229Z,13.51
2018-09-28T21:36:21.140Z,13.47
2018-09-28T21:41:14.181Z,13.42
2018-09-28T21:46:07.098Z,13.37
2018-09-28T21:50:59.847Z,13.32
2018-09-28T21:55:52.470Z,13.27
2018-09-28T22:00:46.910Z,13.24
2018-09-28T22:05:39.521Z,13.13
2018-09-28T22:10:32.694Z,13.03
2018-09-28T22:15:25.306Z,12.93
2018-09-28T22:20:17.970Z,12.83
2018-09-28T22:25:10.619Z,12.77
2018-09-28T22:30:03.240Z,12.71
2018-09-28T22:34:55.880Z,12.65
2018-09-28T22:39:48.473Z,12.60
2018-09-28T22:44:41.049Z,12.56
2018-09-28T22:49:33.674Z,12.48
2018-09-28T22:54:26.306Z,12.43
2018-09-28T22:59:19.199Z,12.38
2018-09-28T23:04:11.819Z,12.30
2018-09-28T23:09:05.891Z,12.25
2018-09-28T23:13:58.494Z,12.20
2018-09-28T23:18:51.110Z,12.18
2018-09-28T23:23:43.714Z,12.16
2018-09-28T23:28:36.386Z,12.11
2018-09-28T23:33:29.038Z,12.05
2018-09-28T23:38:21.590Z,11.99
2018-09-28T23:43:14.178Z,11.95
2018-09-28T23:48:06.806Z,11.90
2018-09-28T23:52:59.437Z,11.87
2018-09-28T23:57:52.046Z,11.83
